Time;durP1;ratioP1;P1;durP2;ratioP2;P2;SDS_P1;SDS_P2;PMS_P1;PMS_P2;Temp;Humidity;BMP_temperature;BMP_pressure;BME280_temperature;BME280_humidity;BME280_pressure;Samples;Min_cycle;Max_cycle;Signal;HPM_P1;HPM_P2
2022/09/04 00:01:53;;;;;;;;;;;;;;;;;;6209949;22;19918;-87
2022/09/04 00:04:19;;;;;;;;;;;;;;;;;;6234650;22;20001;-87
2022/09/04 00:06:45;;;;;;;;;;;;;;;;;;6209074;22;20093;-87
2022/09/04 00:09:14;;;;;;;;;;;;;;;;;;6212250;22;19923;-87
2022/09/04 00:11:53;;;;;;;;;;;;;;;;;;6239262;22;20251;-87
2022/09/04 00:14:32;;;;;;;;;;;;;;;;;;6211388;22;19923;-87
2022/09/04 00:17:02;;;;;;;;;;;;;;;;;;6237336;22;19934;-87
2022/09/04 00:19:37;;;;;;;;;;;;;;;;;;6260407;22;19945;-87
2022/09/04 00:22:03;;;;;;;;;;;;;;;;;;6211108;22;19916;-87
2022/09/04 00:24:32;;;;;;;;;;;;;;;;;;6232669;22;19990;-87
2022/09/04 00:27:01;;;;;;;;;;;;;;;;;;6234808;22;19947;-87
2022/09/04 00:29:29;;;;;;;;;;;;;;;;;;6203024;23;19994;-87
2022/09/04 00:31:57;;;;;;;;;;;;;;;;;;6206068;23;19926;-87
2022/09/04 00:34:25;;;;;;;;;;;;;;;;;;6180189;23;19920;-88
2022/09/04 00:36:54;;;;;;;;;;;;;;;;;;6204608;23;19927;-87
2022/09/04 00:39:20;;;;;;;;;;;;;;;;;;6204693;23;19951;-87
2022/09/04 00:41:46;;;;;;;;;;;;;;;;;;6178031;23;19915;-87
2022/09/04 00:44:12;;;;;;;;;;;;;;;;;;6181290;23;19986;-87
2022/09/04 00:46:38;;;;;;;;;;;;;;;;;;6178894;23;20359;-86
2022/09/04 00:49:06;;;;;;;;;;;;;;;;;;6177683;23;19920;-87
2022/09/04 00:51:41;;;;;;;;;;;;;;;;;;6179598;23;20308;-87
2022/09/04 00:54:08;;;;;;;;;;;;;;;;;;6205601;23;19931;-87
2022/09/04 00:56:42;;;;;;;;;;;;;;;;;;6178190;23;19928;-87
2022/09/04 00:59:10;;;;;;;;;;;;;;;;;;6181384;23;19968;-87
2022/09/04 01:01:36;;;;;;;;;;;;;;;;;;6181193;23;20272;-87
2022/09/04 01:04:02;;;;;;;;;;;;;;;;;;6180238;23;20332;-87
2022/09/04 01:06:28;;;;;;;;;;;;;;;;;;6180298;23;19919;-87
2022/09/04 01:08:58;;;;;;;;;;;;;;;;;;6182589;23;19919;-87
2022/09/04 01:11:24;;;;;;;;;;;;;;;;;;6181796;23;19919;-87
2022/09/04 01:13:56;;;;;;;;;;;;;;;;;;6231035;23;19919;-87
2022/09/04 01:16:23;;;;;;;;;;;;;;;;;;6182273;23;19930;-87
2022/09/04 01:18:49;;;;;;;;;;;;;;;;;;6180125;23;19916;-88
2022/09/04 01:21:17;;;;;;;;;;;;;;;;;;6181359;23;19920;-88
2022/09/04 01:23:43;;;;;;;;;;;;;;;;;;6178055;23;19926;-87
2022/09/04 01:26:09;;;;;;;;;;;;;;;;;;6181838;23;19920;-87
2022/09/04 01:28:41;;;;;;;;;;;;;;;;;;6225585;22;20157;-87
2022/09/04 01:31:07;;;;;;;;;;;;;;;;;;6212473;22;19992;-87
2022/09/04 01:33:33;;;;;;;;;;;;;;;;;;6211464;22;19994;-87
2022/09/04 01:36:02;;;;;;;;;;;;;;;;;;6205555;22;19923;-87
2022/09/04 01:38:28;;;;;;;;;;;;;;;;;;6233298;22;20354;-87
2022/09/04 01:40:55;;;;;;;;;;;;;;;;;;6212435;22;19964;-87
2022/09/04 01:43:26;;;;;;;;;;;;;;;;;;6211384;22;19923;-87
2022/09/04 01:45:55;;;;;;;;;;;;;;;;;;6235073;22;19919;-87
2022/09/04 01:48:24;;;;;;;;;;;;;;;;;;6208653;22;20359;-86
2022/09/04 01:50:53;;;;;;;;;;;;;;;;;;6213458;22;20484;-87
2022/09/04 01:53:19;;;;;;;;;;;;;;;;;;6210701;22;20408;-87
2022/09/04 01:55:47;;;;;;;;;;;;;;;;;;6210003;22;19930;-87
2022/09/04 01:58:15;;;;;;;;;;;;;;;;;;6211760;22;19927;-87
2022/09/04 02:00:41;;;;;;;;;;;;;;;;;;6210461;22;19930;-87
2022/09/04 02:03:07;;;;;;;;;;;;;;;;;;6239672;22;19930;-87
2022/09/04 02:05:49;;;;;;;;;;;;;;;;;;6211498;22;19919;-87
2022/09/04 02:08:18;;;;;;;;;;;;;;;;;;6211261;22;20001;-87
2022/09/04 02:10:44;;;;;;;;;;;;;;;;;;6208865;22;20000;-87
2022/09/04 02:13:19;;;;;;;;;;;;;;;;;;6213255;22;19972;-87
2022/09/04 02:15:52;;;;;;;;;;;;;;;;;;6213313;22;20415;-87
2022/09/04 02:18:18;;;;;;;;;;;;;;;;;;6212496;22;19919;-87
2022/09/04 02:20:44;;;;;;;;;;;;;;;;;;6236415;22;19972;-87
2022/09/04 02:23:10;;;;;;;;;;;;;;;;;;6236105;22;19915;-87
2022/09/04 02:25:45;;;;;;;;;;;;;;;;;;6235452;22;20351;-87
2022/09/04 02:28:14;;;;;;;;;;;;;;;;;;6212185;22;19915;-87
2022/09/04 02:30:40;;;;;;;;;;;;;;;;;;6209442;22;19923;-87
2022/09/04 02:33:06;;;;;;;;;;;;;;;;;;6212128;22;20021;-87
2022/09/04 02:35:32;;;;;;;;;;;;;;;;;;6209034;22;20352;-87
2022/09/04 02:37:58;;;;;;;;;;;;;;;;;;6210777;22;20046;-87
2022/09/04 02:40:32;;;;;;;;;;;;;;;;;;6210518;22;19923;-87
2022/09/04 02:42:58;;;;;;;;;;;;;;;;;;6212334;22;19919;-87
2022/09/04 02:45:24;;;;;;;;;;;;;;;;;;6210054;22;19919;-87
2022/09/04 02:47:57;;;;;;;;;;;;;;;;;;6236631;22;19976;-87
2022/09/04 02:50:26;;;;;;;;;;;;;;;;;;6208850;22;20027;-87
2022/09/04 02:52:52;;;;;;;;;;;;;;;;;;6210289;22;19919;-87
2022/09/04 02:55:19;;;;;;;;;;;;;;;;;;6235750;22;19923;-87
2022/09/04 02:57:46;;;;;;;;;;;;;;;;;;6208215;22;19938;-86
2022/09/04 03:00:18;;;;;;;;;;;;;;;;;;6237839;22;19920;-87
2022/09/04 03:02:44;;;;;;;;;;;;;;;;;;6233194;22;20847;-87
2022/09/04 03:05:10;;;;;;;;;;;;;;;;;;6238323;22;20357;-87
2022/09/04 03:07:45;;;;;;;;;;;;;;;;;;6266048;22;20300;-87
2022/09/04 03:10:11;;;;;;;;;;;;;;;;;;6211111;22;19985;-87
2022/09/04 03:12:37;;;;;;;;;;;;;;;;;;6234101;22;19927;-87
2022/09/04 03:15:03;;;;;;;;;;;;;;;;;;6210995;22;19923;-87
2022/09/04 03:17:29;;;;;;;;;;;;;;;;;;6208633;22;20320;-87
2022/09/04 03:19:56;;;;;;;;;;;;;;;;;;6210766;22;20252;-87
2022/09/04 03:22:27;;;;;;;;;;;;;;;;;;6208299;22;19919;-87
2022/09/04 03:24:53;;;;;;;;;;;;;;;;;;6235608;22;19980;-87
2022/09/04 03:27:25;;;;;;;;;;;;;;;;;;6210893;22;20228;-87
2022/09/04 03:29:54;;;;;;;;;;;;;;;;;;6212486;22;19923;-87
2022/09/04 03:32:20;;;;;;;;;;;;;;;;;;6209938;22;19990;-87
2022/09/04 03:34:46;;;;;;;;;;;;;;;;;;6208452;22;19923;-87
2022/09/04 03:37:12;;;;;;;;;;;;;;;;;;6236099;22;19990;-87
2022/09/04 03:39:38;;;;;;;;;;;;;;;;;;6208727;22;20347;-87
2022/09/04 03:42:04;;;;;;;;;;;;;;;;;;6210867;22;20488;-87
2022/09/04 03:44:31;;;;;;;;;;;;;;;;;;6208037;22;19919;-87
2022/09/04 03:46:57;;;;;;;;;;;;;;;;;;6210351;22;20374;-87
2022/09/04 03:49:25;;;;;;;;;;;;;;;;;;6208366;22;19916;-87
2022/09/04 03:51:54;;;;;;;;;;;;;;;;;;6236617;22;20218;-87
2022/09/04 03:54:24;;;;;;;;;;;;;;;;;;6237097;22;19998;-87
2022/09/04 03:56:50;;;;;;;;;;;;;;;;;;6211326;22;19923;-87
2022/09/04 03:59:19;;;;;;;;;;;;;;;;;;6211001;22;19946;-87
2022/09/04 04:01:45;;;;;;;;;;;;;;;;;;6206845;22;19919;-87
2022/09/04 04:04:12;;;;;;;;;;;;;;;;;;6235356;22;19919;-86
2022/09/04 04:06:38;;;;;;;;;;;;;;;;;;6209176;22;19915;-87
2022/09/04 04:09:04;;;;;;;;;;;;;;;;;;6212060;22;19942;-87
2022/09/04 04:11:30;;;;;;;;;;;;;;;;;;6209490;22;19916;-87
2022/09/04 04:13:59;;;;;;;;;;;;;;;;;;6235234;22;20338;-87
2022/09/04 04:16:29;;;;;;;;;;;;;;;;;;6235282;22;20225;-87
2022/09/04 04:18:58;;;;;;;;;;;;;;;;;;6233899;22;19920;-87
2022/09/04 04:21:27;;;;;;;;;;;;;;;;;;6235012;22;19915;-87
2022/09/04 04:23:56;;;;;;;;;;;;;;;;;;6237999;22;19926;-86
2022/09/04 04:26:25;;;;;;;;;;;;;;;;;;6211363;22;19926;-87
2022/09/04 04:28:57;;;;;;;;;;;;;;;;;;6229486;23;19920;-87
2022/09/04 04:31:27;;;;;;;;;;;;;;;;;;6230429;23;19923;-87
2022/09/04 04:33:53;;;;;;;;;;;;;;;;;;6205701;23;20232;-87
2022/09/04 04:36:26;;;;;;;;;;;;;;;;;;6231332;23;20299;-86
2022/09/04 04:38:52;;;;;;;;;;;;;;;;;;6231834;23;19919;-86
2022/09/04 04:41:20;;;;;;;;;;;;;;;;;;6233771;23;20304;-87
2022/09/04 04:43:46;;;;;;;;;;;;;;;;;;6206387;23;20333;-87
2022/09/04 04:46:16;;;;;;;;;;;;;;;;;;6231216;23;19924;-86
2022/09/04 04:48:42;;;;;;;;;;;;;;;;;;6204249;23;19919;-87
2022/09/04 04:51:11;;;;;;;;;;;;;;;;;;6231751;23;19973;-87
2022/09/04 04:53:40;;;;;;;;;;;;;;;;;;6230700;23;19997;-87
2022/09/04 04:56:12;;;;;;;;;;;;;;;;;;6207100;23;19977;-87
2022/09/04 04:58:39;;;;;;;;;;;;;;;;;;6230835;23;19920;-87
2022/09/04 05:01:05;;;;;;;;;;;;;;;;;;6229696;23;19927;-87
2022/09/04 05:03:34;;;;;;;;;;;;;;;;;;6228727;23;19928;-87
2022/09/04 05:06:07;;;;;;;;;;;;;;;;;;6206325;23;19986;-87
2022/09/04 05:08:36;;;;;;;;;;;;;;;;;;6231050;23;19916;-87
2022/09/04 05:11:02;;;;;;;;;;;;;;;;;;6231679;23;20213;-87
2022/09/04 05:13:28;;;;;;;;;;;;;;;;;;6232828;23;19919;-87
2022/09/04 05:15:54;;;;;;;;;;;;;;;;;;6208053;23;19927;-86
2022/09/04 05:18:20;;;;;;;;;;;;;;;;;;6206825;23;19989;-86
2022/09/04 05:20:49;;;;;;;;;;;;;;;;;;6204225;23;20328;-86
2022/09/04 05:23:15;;;;;;;;;;;;;;;;;;6206713;23;19920;-86
2022/09/04 05:25:41;;;;;;;;;;;;;;;;;;6204250;23;19924;-86
2022/09/04 05:28:07;;;;;;;;;;;;;;;;;;6208232;23;19920;-86
2022/09/04 05:30:33;;;;;;;;;;;;;;;;;;6206120;23;20026;-87
2022/09/04 05:32:59;;;;;;;;;;;;;;;;;;6207119;23;19919;-87
2022/09/04 05:35:30;;;;;;;;;;;;;;;;;;6232089;23;19951;-87
2022/09/04 05:37:56;;;;;;;;;;;;;;;;;;6208937;23;19920;-86
2022/09/04 05:40:28;;;;;;;;;;;;;;;;;;6204547;23;19942;-87
2022/09/04 05:42:57;;;;;;;;;;;;;;;;;;6235327;23;19920;-86
2022/09/04 05:45:24;;;;;;;;;;;;;;;;;;6208577;23;20335;-87
2022/09/04 05:47:50;;;;;;;;;;;;;;;;;;6209088;23;19923;-87
2022/09/04 05:50:22;;;;;;;;;;;;;;;;;;6209564;23;19994;-87
2022/09/04 05:52:51;;;;;;;;;;;;;;;;;;6233005;23;19919;-87
2022/09/04 05:55:30;;;;;;;;;;;;;;;;;;6234913;23;20301;-87
2022/09/04 05:57:59;;;;;;;;;;;;;;;;;;6208028;23;20294;-87
2022/09/04 06:00:28;;;;;;;;;;;;;;;;;;6228801;23;19954;-87
2022/09/04 06:02:54;;;;;;;;;;;;;;;;;;6204908;23;19919;-87
2022/09/04 06:05:20;;;;;;;;;;;;;;;;;;6206048;23;20371;-87
2022/09/04 06:07:46;;;;;;;;;;;;;;;;;;6229380;23;19919;-87
2022/09/04 06:10:12;;;;;;;;;;;;;;;;;;6209106;23;19933;-86
2022/09/04 06:12:42;;;;;;;;;;;;;;;;;;6206352;23;19935;-86
2022/09/04 06:15:08;;;;;;;;;;;;;;;;;;6205310;23;19923;-86
2022/09/04 06:17:37;;;;;;;;;;;;;;;;;;6230336;23;19959;-86
2022/09/04 06:20:03;;;;;;;;;;;;;;;;;;6205302;23;20003;-86
2022/09/04 06:22:40;;;;;;;;;;;;;;;;;;6229942;23;19961;-86
2022/09/04 06:25:13;;;;;;;;;;;;;;;;;;6205975;23;19915;-86
2022/09/04 06:27:39;;;;;;;;;;;;;;;;;;6234443;22;19923;-85
2022/09/04 06:30:08;;;;;;;;;;;;;;;;;;6237462;22;20343;-86
2022/09/04 06:32:34;;;;;;;;;;;;;;;;;;6210289;22;19926;-85
2022/09/04 06:35:00;;;;;;;;;;;;;;;;;;6235181;22;19923;-85
2022/09/04 06:37:29;;;;;;;;;;;;;;;;;;6235980;22;20334;-86
2022/09/04 06:39:58;;;;;;;;;;;;;;;;;;6211550;22;20029;-86
2022/09/04 06:42:27;;;;;;;;;;;;;;;;;;6209403;22;20304;-86
2022/09/04 06:44:55;;;;;;;;;;;;;;;;;;6210888;22;20392;-85
2022/09/04 06:47:29;;;;;;;;;;;;;;;;;;6210338;22;20404;-85
2022/09/04 06:49:57;;;;;;;;;;;;;;;;;;6209115;22;19977;-86
2022/09/04 06:52:32;;;;;;;;;;;;;;;;;;6207886;22;20319;-86
2022/09/04 06:54:59;;;;;;;;;;;;;;;;;;6235348;22;19950;-87
2022/09/04 06:57:28;;;;;;;;;;;;;;;;;;6234650;22;19915;-86
2022/09/04 06:59:54;;;;;;;;;;;;;;;;;;6240486;22;19923;-86
2022/09/04 07:02:20;;;;;;;;;;;;;;;;;;6211402;22;20233;-87
2022/09/04 07:04:46;;;;;;;;;;;;;;;;;;6231993;22;19919;-87
2022/09/04 07:07:12;;;;;;;;;;;;;;;;;;6210452;22;19946;-88
2022/09/04 07:09:44;;;;;;;;;;;;;;;;;;6209135;22;19919;-87
2022/09/04 07:12:15;;;;;;;;;;;;;;;;;;6235794;22;20233;-87
2022/09/04 07:14:48;;;;;;;;;;;;;;;;;;6209524;22;19934;-87
2022/09/04 07:17:16;;;;;;;;;;;;;;;;;;6261315;22;19941;-87
2022/09/04 07:19:45;;;;;;;;;;;;;;;;;;6233223;22;20421;-80
2022/09/04 07:22:17;;;;;;;;;;;;;;;;;;6238364;22;19926;-81
2022/09/04 07:24:43;;;;;;;;;;;;;;;;;;6234269;22;19919;-80
2022/09/04 07:30:24;;;;;;;;;;;;;;;;;;6252247;22;19919;-81
2022/09/04 07:32:50;;;;;;;;;;;;;;;;;;6253211;22;19963;-79
2022/09/04 07:35:16;;;;;;;;;;;;;;;;;;6262935;22;19965;-79
2022/09/04 07:37:42;;;;;;;;;;;;;;;;;;6208392;22;20237;-79
2022/09/04 07:40:08;;;;;;;;;;;;;;;;;;6208715;22;19935;-79
2022/09/04 07:42:34;;;;;;;;;;;;;;;;;;6234820;22;19915;-80
2022/09/04 07:45:00;;;;;;;;;;;;;;;;;;6234189;22;19919;-80
2022/09/04 07:47:26;;;;;;;;;;;;;;;;;;6204498;22;19972;-78
2022/09/04 07:49:52;;;;;;;;;;;;;;;;;;6232869;22;19919;-79
2022/09/04 07:52:20;;;;;;;;;;;;;;;;;;6234707;22;19926;-81
2022/09/04 07:54:46;;;;;;;;;;;;;;;;;;6234351;22;19996;-81
2022/09/04 07:57:12;;;;;;;;;;;;;;;;;;6233469;22;20633;-81
2022/09/04 07:59:38;;;;;;;;;;;;;;;;;;6232089;22;19992;-81
2022/09/04 08:02:07;;;;;;;;;;;;;;;;;;6260622;22;20002;-80
2022/09/04 08:04:36;;;;;;;;;;;;;;;;;;6231010;22;19946;-81
2022/09/04 08:07:05;;;;;;;;;;;;;;;;;;6238380;22;19919;-81
2022/09/04 08:09:32;;;;;;;;;;;;;;;;;;6230337;22;20255;-82
2022/09/04 08:11:58;;;;;;;;;;;;;;;;;;6235764;22;19926;-82
2022/09/04 08:14:24;;;;;;;;;;;;;;;;;;6208932;22;20252;-81
2022/09/04 08:16:51;;;;;;;;;;;;;;;;;;6236068;22;19926;-81
2022/09/04 08:19:17;;;;;;;;;;;;;;;;;;6237460;22;19919;-81
2022/09/04 08:21:43;;;;;;;;;;;;;;;;;;6208113;22;19965;-81
2022/09/04 08:24:09;;;;;;;;;;;;;;;;;;6209629;22;19961;-81
2022/09/04 08:26:35;;;;;;;;;;;;;;;;;;6235766;22;19915;-81
2022/09/04 08:29:01;;;;;;;;;;;;;;;;;;6233758;22;20309;-81
2022/09/04 08:31:27;;;;;;;;;;;;;;;;;;6234433;22;19946;-81
2022/09/04 08:33:58;;;;;;;;;;;;;;;;;;6237792;22;20002;-81
2022/09/04 08:36:24;;;;;;;;;;;;;;;;;;6207581;22;19919;-80
2022/09/04 08:38:54;;;;;;;;;;;;;;;;;;6210244;22;19997;-81
2022/09/04 08:41:24;;;;;;;;;;;;;;;;;;6262494;22;19923;-81
2022/09/04 08:43:50;;;;;;;;;;;;;;;;;;6236808;22;19919;-81
2022/09/04 08:46:16;;;;;;;;;;;;;;;;;;6234867;22;19965;-81
2022/09/04 08:48:43;;;;;;;;;;;;;;;;;;6208300;22;19929;-80
2022/09/04 08:51:14;;;;;;;;;;;;;;;;;;6236701;22;19965;-81
2022/09/04 08:53:40;;;;;;;;;;;;;;;;;;6234733;22;19919;-80
2022/09/04 08:56:08;;;;;;;;;;;;;;;;;;6238147;22;19923;-81
2022/09/04 08:58:34;;;;;;;;;;;;;;;;;;6233176;22;19990;-81
2022/09/04 09:01:01;;;;;;;;;;;;;;;;;;6235177;22;20398;-81
2022/09/04 09:03:28;;;;;;;;;;;;;;;;;;6237362;22;20359;-81
2022/09/04 09:05:54;;;;;;;;;;;;;;;;;;6212991;22;20300;-81
2022/09/04 09:08:20;;;;;;;;;;;;;;;;;;6214306;22;19915;-81
2022/09/04 09:10:46;;;;;;;;;;;;;;;;;;6234092;22;20391;-80
2022/09/04 09:13:13;;;;;;;;;;;;;;;;;;6237310;22;19954;-80
2022/09/04 09:15:39;;;;;;;;;;;;;;;;;;6211586;22;19919;-81
2022/09/04 09:18:10;;;;;;;;;;;;;;;;;;6215282;22;19954;-80
2022/09/04 09:20:36;;;;;;;;;;;;;;;;;;6238041;22;20287;-81
2022/09/04 09:23:02;;;;;;;;;;;;;;;;;;6213518;22;19919;-81
2022/09/04 09:25:29;;;;;;;;;;;;;;;;;;6209093;22;20336;-81
2022/09/04 09:33:42;;;;;;;;;;;;;;;;;;6225930;22;20305;-88
2022/09/04 09:36:09;;;;;;;;;;;;;;;;;;6213242;22;20295;-88
2022/09/04 09:38:38;;;;;;;;;;;;;;;;;;6235173;22;19919;-88
2022/09/04 09:41:05;;;;;;;;;;;;;;;;;;6212911;22;19915;-88
2022/09/04 09:43:34;;;;;;;;;;;;;;;;;;6209481;22;19986;-88
2022/09/04 09:46:06;;;;;;;;;;;;;;;;;;6232797;22;20336;-87
2022/09/04 09:48:57;;;;;;;;;;;;;;;;;;6211771;22;20433;-87
2022/09/04 09:51:28;;;;;;;;;;;;;;;;;;6206696;22;20232;-88
2022/09/04 09:54:04;;;;;;;;;;;;;;;;;;6211582;22;19923;-87
2022/09/04 09:56:39;;;;;;;;;;;;;;;;;;6235764;22;19926;-88
2022/09/04 09:59:13;;;;;;;;;;;;;;;;;;6208090;22;19954;-87
2022/09/04 10:01:51;;;;;;;;;;;;;;;;;;6234410;22;19951;-87
2022/09/04 10:04:17;;;;;;;;;;;;;;;;;;6204814;22;19915;-87
2022/09/04 10:06:43;;;;;;;;;;;;;;;;;;6234432;22;19926;-87
2022/09/04 10:09:21;;;;;;;;;;;;;;;;;;6237039;22;19919;-88
2022/09/04 10:11:52;;;;;;;;;;;;;;;;;;6210096;22;19919;-88
2022/09/04 10:14:18;;;;;;;;;;;;;;;;;;6213753;22;19923;-89
2022/09/04 10:16:47;;;;;;;;;;;;;;;;;;6234373;22;19969;-88
2022/09/04 10:19:15;;;;;;;;;;;;;;;;;;6234087;22;19959;-89
2022/09/04 10:21:44;;;;;;;;;;;;;;;;;;6232128;22;19919;-89
2022/09/04 10:24:26;;;;;;;;;;;;;;;;;;6248112;22;20237;-88
2022/09/04 10:27:05;;;;;;;;;;;;;;;;;;;;;
2022/09/04 10:29:33;;;;;;;;;;;;;;;;;;6200875;23;19966;-89
2022/09/04 10:32:07;;;;;;;;;;;;;;;;;;6204256;23;20327;-90
2022/09/04 10:34:37;;;;;;;;;;;;;;;;;;6202697;23;19927;-89
2022/09/04 10:37:03;;;;;;;;;;;;;;;;;;6206850;23;20316;-88
2022/09/04 10:42:21;;;;;;;;;;;;;;;;;;6235418;23;20299;-87
2022/09/04 10:44:54;;;;;;;;;;;;;;;;;;6234264;23;19919;-88
2022/09/04 10:47:22;;;;;;;;;;;;;;;;;;6186870;23;20308;-88
2022/09/04 10:49:51;;;;;;;;;;;;;;;;;;6188398;23;20401;-88
2022/09/04 10:52:29;;;;;;;;;;;;;;;;;;6187315;23;19982;-88
2022/09/04 10:54:58;;;;;;;;;;;;;;;;;;6212571;23;20595;-88
2022/09/04 10:57:24;;;;;;;;;;;;;;;;;;6209994;23;19973;-88
2022/09/04 10:59:53;;;;;;;;;;;;;;;;;;6213245;23;19916;-88
2022/09/04 11:02:22;;;;;;;;;;;;;;;;;;6210971;23;20264;-88
2022/09/04 11:04:48;;;;;;;;;;;;;;;;;;6184272;23;20232;-88
2022/09/04 11:07:14;;;;;;;;;;;;;;;;;;6187210;23;20240;-88
2022/09/04 11:09:49;;;;;;;;;;;;;;;;;;6184251;23;19916;-88
2022/09/04 11:12:15;;;;;;;;;;;;;;;;;;6178796;23;19970;-88
2022/09/04 11:14:44;;;;;;;;;;;;;;;;;;6176342;23;19967;-88
2022/09/04 11:17:29;;;;;;;;;;;;;;;;;;6202488;23;19969;-88
2022/09/04 11:19:59;;;;;;;;;;;;;;;;;;6184646;23;20283;-88
2022/09/04 11:22:33;;;;;;;;;;;;;;;;;;6231587;23;19923;-89
2022/09/04 11:25:00;;;;;;;;;;;;;;;;;;6208951;23;19927;-88
2022/09/04 11:27:37;;;;;;;;;;;;;;;;;;6215354;22;19976;-88
2022/09/04 11:30:05;;;;;;;;;;;;;;;;;;6240188;22;20385;-88
2022/09/04 11:32:34;;;;;;;;;;;;;;;;;;6235746;22;19922;-88
2022/09/04 11:35:06;;;;;;;;;;;;;;;;;;6239879;22;19922;-88
2022/09/04 11:37:32;;;;;;;;;;;;;;;;;;6210128;22;19922;-88
2022/09/04 11:40:06;;;;;;;;;;;;;;;;;;6215324;22;20249;-87
2022/09/04 11:42:32;;;;;;;;;;;;;;;;;;6263707;22;19994;-88
2022/09/04 11:45:04;;;;;;;;;;;;;;;;;;6212348;22;19954;-88
2022/09/04 11:47:32;;;;;;;;;;;;;;;;;;6238508;22;19915;-88
2022/09/04 11:49:59;;;;;;;;;;;;;;;;;;6214338;22;19957;-88
2022/09/04 11:52:30;;;;;;;;;;;;;;;;;;6212114;22;20260;-88
2022/09/04 11:54:56;;;;;;;;;;;;;;;;;;6214560;22;19926;-88
2022/09/04 11:57:22;;;;;;;;;;;;;;;;;;6214722;22;19993;-87
2022/09/04 11:59:51;;;;;;;;;;;;;;;;;;6239389;22;19923;-88
2022/09/04 12:02:27;;;;;;;;;;;;;;;;;;;;;
2022/09/04 12:04:53;;;;;;;;;;;;;;;;;;6240873;22;19919;-87
2022/09/04 12:07:19;;;;;;;;;;;;;;;;;;6238407;22;20263;-87
2022/09/04 12:09:56;;;;;;;;;;;;;;;;;;6237169;22;19939;-87
2022/09/04 12:12:22;;;;;;;;;;;;;;;;;;6212986;22;19954;-88
2022/09/04 12:14:54;;;;;;;;;;;;;;;;;;6208927;22;19943;-88
2022/09/04 12:17:20;;;;;;;;;;;;;;;;;;6235284;22;19954;-88
2022/09/04 12:20:05;;;;;;;;;;;;;;;;;;6241137;22;19965;-87
2022/09/04 12:22:48;;;;;;;;;;;;;;;;;;6263271;22;19938;-87
2022/09/04 12:25:15;;;;;;;;;;;;;;;;;;6206306;22;19964;-87
2022/09/04 12:27:50;;;;;;;;;;;;;;;;;;6196834;22;19927;-87
2022/09/04 12:30:29;;;;;;;;;;;;;;;;;;6234920;22;19946;-87
2022/09/04 12:33:06;;;;;;;;;;;;;;;;;;6235419;22;19927;-87
2022/09/04 12:35:33;;;;;;;;;;;;;;;;;;6231836;22;19976;-87
2022/09/04 12:37:59;;;;;;;;;;;;;;;;;;6209118;22;20255;-87
2022/09/04 12:40:43;;;;;;;;;;;;;;;;;;;;;
2022/09/04 12:43:19;;;;;;;;;;;;;;;;;;6235446;22;19990;-87
2022/09/04 12:56:18;;;;;;;;;;;;;;;;;;6196828;22;20228;-86
2022/09/04 12:58:45;;;;;;;;;;;;;;;;;;6238381;22;19918;-86
2022/09/04 13:01:12;;;;;;;;;;;;;;;;;;6268391;22;19925;-86
2022/09/04 13:03:38;;;;;;;;;;;;;;;;;;6238034;22;19919;-87
2022/09/04 13:06:06;;;;;;;;;;;;;;;;;;6264324;22;19954;-86
2022/09/04 13:08:33;;;;;;;;;;;;;;;;;;6233446;22;20339;-86
2022/09/04 13:11:02;;;;;;;;;;;;;;;;;;6291070;22;19957;-86
2022/09/04 13:13:28;;;;;;;;;;;;;;;;;;6234675;22;20334;-86
2022/09/04 13:15:56;;;;;;;;;;;;;;;;;;6238880;22;19922;-87
2022/09/04 13:18:25;;;;;;;;;;;;;;;;;;6262027;22;19922;-87
2022/09/04 13:20:51;;;;;;;;;;;;;;;;;;6263803;22;19919;-86
2022/09/04 13:23:18;;;;;;;;;;;;;;;;;;6240293;22;19915;-87
2022/09/04 13:25:47;;;;;;;;;;;;;;;;;;6291397;22;19918;-87
2022/09/04 13:28:13;;;;;;;;;;;;;;;;;;6239760;22;19993;-87
2022/09/04 13:30:39;;;;;;;;;;;;;;;;;;6236017;22;20348;-87
2022/09/04 13:33:05;;;;;;;;;;;;;;;;;;6239884;22;20006;-86
2022/09/04 13:35:31;;;;;;;;;;;;;;;;;;6261955;22;20607;-86
2022/09/04 13:37:57;;;;;;;;;;;;;;;;;;6240947;22;19919;-87
2022/09/04 13:40:23;;;;;;;;;;;;;;;;;;6236512;22;19918;-86
2022/09/04 13:42:49;;;;;;;;;;;;;;;;;;6237613;22;20716;-86
2022/09/04 13:45:18;;;;;;;;;;;;;;;;;;6266696;22;19990;-86
2022/09/04 13:47:44;;;;;;;;;;;;;;;;;;6263899;22;20355;-86
2022/09/04 13:50:12;;;;;;;;;;;;;;;;;;6265564;22;19926;-87
2022/09/04 13:52:38;;;;;;;;;;;;;;;;;;6240100;22;19950;-87
2022/09/04 13:55:04;;;;;;;;;;;;;;;;;;6244436;22;19996;-86
2022/09/04 13:57:30;;;;;;;;;;;;;;;;;;6268038;22;19926;-87
2022/09/04 13:59:57;;;;;;;;;;;;;;;;;;6268983;22;19926;-86
2022/09/04 14:02:24;;;;;;;;;;;;;;;;;;6265716;22;20225;-87
2022/09/04 14:04:50;;;;;;;;;;;;;;;;;;6270609;22;19926;-87
2022/09/04 14:07:17;;;;;;;;;;;;;;;;;;6244489;22;19914;-86
2022/09/04 14:09:43;;;;;;;;;;;;;;;;;;6264734;22;19950;-87
2022/09/04 14:12:09;;;;;;;;;;;;;;;;;;6243057;22;19942;-86
2022/09/04 14:14:41;;;;;;;;;;;;;;;;;;6238435;22;19919;-86
2022/09/04 14:17:07;;;;;;;;;;;;;;;;;;6265546;22;19919;-87
2022/09/04 14:19:34;;;;;;;;;;;;;;;;;;6264120;22;19997;-86
2022/09/04 14:22:03;;;;;;;;;;;;;;;;;;6239804;22;19962;-86
2022/09/04 14:24:31;;;;;;;;;;;;;;;;;;6263251;22;19964;-87
2022/09/04 14:26:57;;;;;;;;;;;;;;;;;;6269263;22;19915;-86
2022/09/04 14:29:24;;;;;;;;;;;;;;;;;;6269115;22;20358;-86
2022/09/04 14:31:51;;;;;;;;;;;;;;;;;;6240709;22;19919;-86
2022/09/04 14:34:17;;;;;;;;;;;;;;;;;;6241376;22;19972;-87
2022/09/04 14:36:55;;;;;;;;;;;;;;;;;;6290542;22;20080;-86
2022/09/04 14:39:21;;;;;;;;;;;;;;;;;;6292662;22;19915;-87
2022/09/04 14:41:47;;;;;;;;;;;;;;;;;;6256085;22;19921;-87
2022/09/04 14:44:13;;;;;;;;;;;;;;;;;;6239359;22;19915;-87
2022/09/04 14:46:40;;;;;;;;;;;;;;;;;;6235693;22;19976;-87
2022/09/04 14:49:06;;;;;;;;;;;;;;;;;;6264074;22;19919;-86
2022/09/04 14:51:33;;;;;;;;;;;;;;;;;;6260585;22;19961;-87
2022/09/04 14:54:02;;;;;;;;;;;;;;;;;;6238685;22;19997;-87
2022/09/04 14:56:29;;;;;;;;;;;;;;;;;;6235719;22;19941;-87
2022/09/04 14:58:55;;;;;;;;;;;;;;;;;;6240859;22;19919;-87
2022/09/04 15:01:22;;;;;;;;;;;;;;;;;;6289373;22;19919;-87
2022/09/04 15:03:50;;;;;;;;;;;;;;;;;;6237191;22;19918;-87
2022/09/04 15:06:16;;;;;;;;;;;;;;;;;;6240023;22;19976;-87
2022/09/04 15:08:43;;;;;;;;;;;;;;;;;;6236375;22;19923;-87
2022/09/04 15:11:16;;;;;;;;;;;;;;;;;;6264363;22;20232;-88
2022/09/04 15:13:42;;;;;;;;;;;;;;;;;;6236810;22;20359;-87
2022/09/04 15:16:08;;;;;;;;;;;;;;;;;;6263102;22;19975;-87
2022/09/04 15:18:37;;;;;;;;;;;;;;;;;;6234213;22;19944;-87
2022/09/04 15:21:03;;;;;;;;;;;;;;;;;;6262082;22;19950;-86
2022/09/04 15:23:29;;;;;;;;;;;;;;;;;;6256706;22;19981;-87
2022/09/04 15:25:56;;;;;;;;;;;;;;;;;;6233253;22;19968;-86
2022/09/04 15:28:24;;;;;;;;;;;;;;;;;;6258982;22;19923;-86
2022/09/04 15:30:53;;;;;;;;;;;;;;;;;;6266334;22;20274;-86
2022/09/04 15:33:21;;;;;;;;;;;;;;;;;;6261289;22;19926;-86
2022/09/04 15:35:50;;;;;;;;;;;;;;;;;;6284358;22;19918;-86
2022/09/04 15:38:19;;;;;;;;;;;;;;;;;;6237160;22;19925;-86
2022/09/04 15:40:45;;;;;;;;;;;;;;;;;;6257606;22;19926;-86
2022/09/04 15:43:11;;;;;;;;;;;;;;;;;;6237287;22;20330;-86
2022/09/04 15:45:44;;;;;;;;;;;;;;;;;;6263989;22;20554;-87
2022/09/04 15:48:10;;;;;;;;;;;;;;;;;;6238491;22;19915;-86
2022/09/04 15:50:36;;;;;;;;;;;;;;;;;;6238390;22;19925;-86
2022/09/04 15:53:05;;;;;;;;;;;;;;;;;;6235039;22;19963;-86
2022/09/04 15:55:31;;;;;;;;;;;;;;;;;;6229128;22;19925;-87
2022/09/04 15:57:58;;;;;;;;;;;;;;;;;;6234347;22;19929;-86
2022/09/04 16:00:27;;;;;;;;;;;;;;;;;;6262107;22;19918;-86
2022/09/04 16:02:55;;;;;;;;;;;;;;;;;;6261827;22;19923;-86
2022/09/04 16:05:23;;;;;;;;;;;;;;;;;;6291521;22;20018;-85
2022/09/04 16:15:36;;;;;;;;;;;;;;;;;;6286283;22;20354;-88
2022/09/04 16:20:52;;;;;;;;;;;;;;;;;;;;;
2022/09/04 16:45:18;;;;;;;;;;;;;;;;;;6145929;23;20111;-81
2022/09/04 16:47:47;;;;;;;;;;;;;;;;;;6083223;23;20490;-82
2022/09/04 16:50:35;;;;;;;;;;;;;;;;;;6088485;23;20016;-82
2022/09/04 16:53:03;;;;;;;;;;;;;;;;;;6109102;23;19947;-81
2022/09/04 16:55:35;;;;;;;;;;;;;;;;;;6109680;23;19924;-81
2022/09/04 16:58:11;;;;;;;;;;;;;;;;;;6088733;23;19925;-81
2022/09/04 17:00:47;;;;;;;;;;;;;;;;;;;;;
2022/09/04 17:03:15;;;;;;;;;;;;;;;;;;6262474;22;19918;-81
2022/09/04 17:08:40;;;;;;;;;;;;;;;;;;6256536;22;19929;-81
2022/09/04 17:11:15;;;;;;;;;;;;;;;;;;6235241;22;20277;-81
2022/09/04 17:14:01;;;;;;;;;;;;;;;;;;6111859;23;19924;-81
2022/09/04 17:16:39;;;;;;;;;;;;;;;;;;;;;
2022/09/04 17:19:40;;;;;;;;;;;;;;;;;;;;;
2022/09/04 17:24:58;;;;;;;;;;;;;;;;;;6108898;23;19956;-81
2022/09/04 17:27:24;;;;;;;;;;;;;;;;;;6084644;23;19920;-81
2022/09/04 17:29:50;;;;;;;;;;;;;;;;;;6088617;23;19920;-81
2022/09/04 17:32:20;;;;;;;;;;;;;;;;;;6194630;22;19925;-81
2022/09/04 17:34:46;;;;;;;;;;;;;;;;;;6238192;22;19945;-81
2022/09/04 17:37:12;;;;;;;;;;;;;;;;;;6265890;22;20585;-81
2022/09/04 17:39:38;;;;;;;;;;;;;;;;;;6235403;22;19919;-80
2022/09/04 17:42:04;;;;;;;;;;;;;;;;;;6234537;22;20281;-80
2022/09/04 17:44:33;;;;;;;;;;;;;;;;;;6263131;22;19968;-81
2022/09/04 17:47:02;;;;;;;;;;;;;;;;;;6265244;22;19922;-81
2022/09/04 17:49:28;;;;;;;;;;;;;;;;;;6290256;22;19919;-80
2022/09/04 17:51:54;;;;;;;;;;;;;;;;;;6293235;22;20259;-82
2022/09/04 17:54:20;;;;;;;;;;;;;;;;;;6238986;22;19964;-81
2022/09/04 17:56:46;;;;;;;;;;;;;;;;;;6237384;22;19919;-81
2022/09/04 17:59:12;;;;;;;;;;;;;;;;;;6293113;22;19918;-81
2022/09/04 18:01:38;;;;;;;;;;;;;;;;;;6236638;22;20350;-81